createdAt,value
2022-07-28T00:00:12.893Z,101283.16
2022-07-28T00:02:39.865Z,101283.00
2022-07-28T00:05:07.849Z,101282.25
2022-07-28T00:07:35.148Z,101275.22
2022-07-28T00:10:02.366Z,101288.75
2022-07-28T00:12:29.382Z,101283.16
2022-07-28T00:14:56.768Z,101286.38
2022-07-28T00:17:23.979Z,101281.94
2022-07-28T00:19:51.017Z,101273.84
2022-07-28T00:22:18.987Z,101291.25
2022-07-28T00:24:46.286Z,101287.16
2022-07-28T00:27:19.285Z,101286.31
2022-07-28T00:29:50.249Z,101288.16
2022-07-28T00:32:20.459Z,101284.72
2022-07-28T00:34:47.963Z,101275.72
2022-07-28T00:37:15.227Z,101283.94
2022-07-28T00:39:43.616Z,101276.19
2022-07-28T00:42:10.839Z,101277.63
2022-07-28T00:44:41.792Z,101272.97
2022-07-28T00:47:09.406Z,101274.41
2022-07-28T00:49:36.456Z,101276.03
2022-07-28T00:52:06.305Z,101278.94
2022-07-28T00:54:34.606Z,101268.84
2022-07-28T00:57:01.787Z,101281.25
2022-07-28T00:59:28.870Z,101280.13
2022-07-28T01:01:56.632Z,101279.44
2022-07-28T01:04:25.046Z,101277.00
2022-07-28T01:07:27.003Z,101274.97
2022-07-28T01:10:35.057Z,101269.97
2022-07-28T01:13:28.898Z,101272.38
2022-07-28T01:16:06.548Z,101266.28
2022-07-28T01:18:48.069Z,101268.16
2022-07-28T01:21:24.137Z,101269.75
2022-07-28T01:24:25.290Z,101271.84
2022-07-28T01:27:09.979Z,101269.19
2022-07-28T01:30:02.991Z,101268.91
2022-07-28T01:32:44.265Z,101268.84
2022-07-28T01:35:23.523Z,101270.47
2022-07-28T01:37:59.683Z,101271.66
2022-07-28T01:40:32.661Z,101268.59
2022-07-28T01:43:06.083Z,101269.16
2022-07-28T01:45:38.165Z,101267.06
2022-07-28T01:48:07.013Z,101269.38
2022-07-28T01:50:37.153Z,101265.44
2022-07-28T01:53:05.027Z,101270.78
2022-07-28T01:55:33.687Z,101272.25
2022-07-28T01:58:02.728Z,101271.38
2022-07-28T02:00:30.878Z,101273.72
2022-07-28T02:03:00.766Z,101265.56
2022-07-28T02:05:28.800Z,101262.56
2022-07-28T02:07:57.564Z,101267.19
2022-07-28T02:10:27.439Z,101271.47
2022-07-28T02:12:55.575Z,101278.22
2022-07-28T02:15:24.162Z,101270.97
2022-07-28T02:17:54.139Z,101271.97
2022-07-28T02:20:23.478Z,101279.00
2022-07-28T02:22:52.327Z,101269.31
2022-07-28T02:25:21.482Z,101267.94
2022-07-28T02:28:01.673Z,101269.75
2022-07-28T02:30:49.871Z,101274.56
2022-07-28T02:33:57.775Z,101266.63
2022-07-28T02:36:25.855Z,101270.56
2022-07-28T02:38:56.741Z,101269.03
2022-07-28T02:41:33.592Z,101273.41
2022-07-28T02:44:07.748Z,101283.41
2022-07-28T02:46:44.749Z,101269.13
2022-07-28T02:49:19.279Z,101273.81
2022-07-28T02:51:49.282Z,101281.88
2022-07-28T02:54:18.514Z,101280.34
2022-07-28T02:56:53.294Z,101287.81
2022-07-28T02:59:23.387Z,101285.84
2022-07-28T03:01:52.341Z,101289.41
2022-07-28T03:04:38.422Z,101288.50
2022-07-28T03:07:06.738Z,101286.47
2022-07-28T03:09:47.352Z,101292.13
2022-07-28T03:12:15.181Z,101294.47
2022-07-28T03:14:42.181Z,101293.41
2022-07-28T03:17:09.919Z,101298.47
2022-07-28T03:19:37.334Z,101302.59
2022-07-28T03:22:05.490Z,101300.47
2022-07-28T03:24:54.777Z,101300.91
2022-07-28T03:27:53.003Z,101310.44
2022-07-28T03:30:27.934Z,101309.69
2022-07-28T03:33:01.645Z,101313.63
2022-07-28T03:35:31.533Z,101315.44
2022-07-28T03:38:23.909Z,101318.59
2022-07-28T03:40:55.009Z,101317.88
2022-07-28T03:43:25.582Z,101319.22
2022-07-28T03:45:53.108Z,101328.41
2022-07-28T03:48:23.483Z,101325.81
2022-07-28T03:50:50.707Z,101331.97
2022-07-28T03:53:26.374Z,101329.50
2022-07-28T03:55:53.967Z,101327.81
2022-07-28T03:58:26.210Z,101336.16
2022-07-28T04:00:57.085Z,101328.13
2022-07-28T04:03:42.615Z,101330.75
2022-07-28T04:06:13.149Z,101327.75
2022-07-28T04:08:40.538Z,101329.31
2022-07-28T04:11:08.306Z,101338.56
2022-07-28T04:13:37.145Z,101338.16
2022-07-28T04:16:07.197Z,101330.34
2022-07-28T04:18:35.603Z,101330.69
2022-07-28T04:21:02.742Z,101338.84
2022-07-28T04:23:30.895Z,101331.78
2022-07-28T04:25:57.932Z,101341.63
2022-07-28T04:28:25.445Z,101341.56
2022-07-28T04:30:52.573Z,101340.91
2022-07-28T04:33:20.690Z,101338.00
2022-07-28T04:35:47.841Z,101337.50
2022-07-28T04:38:17.280Z,101341.56
2022-07-28T04:40:44.402Z,101345.84
2022-07-28T04:43:11.532Z,101342.41
2022-07-28T04:45:38.762Z,101345.84
2022-07-28T04:48:14.284Z,101352.16
2022-07-28T04:50:45.609Z,101343.94
2022-07-28T04:53:13.624Z,101349.78
2022-07-28T04:55:40.723Z,101347.56
2022-07-28T04:58:09.268Z,101359.00
2022-07-28T05:00:36.588Z,101354.09
2022-07-28T05:03:04.419Z,101361.25
2022-07-28T05:05:31.435Z,101358.41
2022-07-28T05:07:58.586Z,101358.81
2022-07-28T05:10:25.725Z,101363.56
2022-07-28T05:12:54.484Z,101366.50
2022-07-28T05:15:21.600Z,101368.41
2022-07-28T05:17:49.955Z,101369.22
2022-07-28T05:20:17.469Z,101368.63
2022-07-28T05:22:53.810Z,101377.44
2022-07-28T05:25:23.718Z,101373.06
2022-07-28T05:27:51.995Z,101379.03
2022-07-28T05:30:19.526Z,101373.75
2022-07-28T05:32:48.058Z,101373.00
2022-07-28T05:35:15.572Z,101378.31
2022-07-28T05:37:43.826Z,101368.75
2022-07-28T05:40:15.530Z,101373.94
2022-07-28T05:42:47.882Z,101362.38
2022-07-28T05:45:17.594Z,101374.00
2022-07-28T05:47:52.765Z,101377.84
2022-07-28T05:50:23.017Z,101373.00
2022-07-28T05:52:51.307Z,101373.38
2022-07-28T05:55:19.060Z,101377.25
2022-07-28T05:57:46.652Z,101375.06
2022-07-28T06:00:23.212Z,101386.53
2022-07-28T06:02:50.970Z,101387.78
2022-07-28T06:05:20.876Z,101381.06
2022-07-28T06:07:50.612Z,101388.59
2022-07-28T06:10:21.258Z,101389.94
2022-07-28T06:12:52.061Z,101383.97
2022-07-28T06:15:28.273Z,101390.06
2022-07-28T06:17:56.027Z,101398.47
2022-07-28T06:20:25.268Z,101386.56
2022-07-28T06:22:55.070Z,101396.81
2022-07-28T06:25:25.959Z,101392.91
2022-07-28T06:27:59.814Z,101386.88
2022-07-28T06:30:27.826Z,101404.78
2022-07-28T06:32:56.573Z,101397.06
2022-07-28T06:35:24.222Z,101392.81
2022-07-28T06:37:52.782Z,101401.22
2022-07-28T06:40:21.181Z,101400.16
2022-07-28T06:42:49.521Z,101396.28
2022-07-28T06:45:20.870Z,101399.34
2022-07-28T06:47:53.215Z,101399.94
2022-07-28T06:50:25.002Z,101396.53
2022-07-28T06:52:57.217Z,101396.88
2022-07-28T06:55:34.670Z,101396.47
2022-07-28T06:58:03.855Z,101394.22
2022-07-28T07:00:31.275Z,101396.84
2022-07-28T07:02:58.402Z,101389.53
2022-07-28T07:05:26.331Z,101391.47
2022-07-28T07:07:53.293Z,101396.94
2022-07-28T07:10:20.436Z,101397.59
2022-07-28T07:12:47.453Z,101393.53
2022-07-28T07:15:14.499Z,101391.16
2022-07-28T07:17:42.471Z,101398.69
2022-07-28T07:20:10.891Z,101402.03
2022-07-28T07:22:47.749Z,101393.53
2022-07-28T07:25:18.387Z,101404.19
2022-07-28T07:27:46.166Z,101406.56
2022-07-28T07:30:19.099Z,101404.28
2022-07-28T07:32:46.135Z,101408.63
2022-07-28T07:35:13.425Z,101406.63
2022-07-28T07:37:40.872Z,101408.78
2022-07-28T07:40:09.511Z,101402.69
2022-07-28T07:42:37.112Z,101404.91
2022-07-28T07:45:04.985Z,101406.00
2022-07-28T07:47:31.945Z,101414.00
2022-07-28T07:50:01.780Z,101413.22
2022-07-28T07:52:30.739Z,101414.09
2022-07-28T07:54:57.843Z,101416.22
2022-07-28T07:57:24.968Z,101423.88
2022-07-28T07:59:52.104Z,101425.97
2022-07-28T08:02:19.129Z,101425.03
2022-07-28T08:04:46.250Z,101418.91
2022-07-28T08:07:14.907Z,101430.56
2022-07-28T08:09:41.933Z,101427.75
2022-07-28T08:12:09.334Z,101436.00
2022-07-28T08:14:36.512Z,101435.75
2022-07-28T08:17:03.534Z,101430.63
2022-07-28T08:19:30.536Z,101427.38
2022-07-28T08:21:57.541Z,101429.34
2022-07-28T08:24:27.636Z,101427.97
2022-07-28T08:27:02.496Z,101419.16
2022-07-28T08:29:30.055Z,101425.31
2022-07-28T08:31:57.713Z,101431.63
2022-07-28T08:34:31.615Z,101433.56
2022-07-28T08:37:03.869Z,101428.88
2022-07-28T08:39:36.064Z,101432.50
2022-07-28T08:42:24.622Z,101428.88
2022-07-28T08:44:58.470Z,101417.06
2022-07-28T08:47:40.715Z,101420.25
2022-07-28T08:50:14.244Z,101428.72
2022-07-28T08:52:45.511Z,101428.22
2022-07-28T08:55:19.464Z,101436.13
2022-07-28T08:57:47.383Z,101432.63
2022-07-28T09:00:15.035Z,101433.25
2022-07-28T09:02:46.500Z,101437.97
2022-07-28T09:05:24.593Z,101437.91
2022-07-28T09:07:55.637Z,101438.75
2022-07-28T09:10:23.515Z,101440.47
2022-07-28T09:12:51.538Z,101435.78
2022-07-28T09:15:19.865Z,101443.97
2022-07-28T09:17:46.990Z,101439.41
2022-07-28T09:20:17.039Z,101433.78
2022-07-28T09:23:03.426Z,101434.75
2022-07-28T09:25:31.506Z,101434.50
2022-07-28T09:28:14.188Z,101432.31
2022-07-28T09:30:53.331Z,101440.88
2022-07-28T09:33:41.302Z,101442.69
2022-07-28T09:36:16.193Z,101439.94
2022-07-28T09:38:44.771Z,101441.44
2022-07-28T09:41:12.473Z,101446.50
2022-07-28T09:43:43.396Z,101440.69
2022-07-28T09:46:20.568Z,101439.94
2022-07-28T09:48:51.171Z,101438.16
2022-07-28T09:51:24.318Z,101441.22
2022-07-28T09:53:52.577Z,101428.19
2022-07-28T09:56:20.102Z,101446.28
2022-07-28T09:58:59.313Z,101437.53
2022-07-28T10:01:29.242Z,101443.91
2022-07-28T10:04:04.258Z,101440.47
2022-07-28T10:06:35.769Z,101435.50
2022-07-28T10:09:07.871Z,101441.28
2022-07-28T10:11:41.090Z,101428.19
2022-07-28T10:14:08.758Z,101432.84
2022-07-28T10:16:42.972Z,101436.19
2022-07-28T10:19:10.099Z,101430.31
2022-07-28T10:21:45.765Z,101430.78
2022-07-28T10:24:22.962Z,101423.72
2022-07-28T10:26:52.745Z,101428.13
2022-07-28T10:29:22.641Z,101430.78
2022-07-28T10:31:53.321Z,101428.97
2022-07-28T10:34:39.295Z,101427.09
2022-07-28T10:37:23.046Z,101425.66
2022-07-28T10:40:10.878Z,101419.50
2022-07-28T10:42:43.744Z,101416.50
2022-07-28T10:45:12.114Z,101413.59
2022-07-28T10:47:39.986Z,101409.09
2022-07-28T10:50:08.722Z,101410.91
2022-07-28T10:52:48.153Z,101409.66
2022-07-28T10:55:55.142Z,101396.94
2022-07-28T10:58:46.033Z,101394.47
2022-07-28T11:01:49.673Z,101403.91
2022-07-28T11:04:46.318Z,101412.22
2022-07-28T11:07:20.076Z,101401.66
2022-07-28T11:09:47.991Z,101409.81
2022-07-28T11:12:16.094Z,101413.25
2022-07-28T11:14:44.933Z,101408.50
2022-07-28T11:17:13.054Z,101415.56
2022-07-28T11:22:34.829Z,101410.00
2022-07-28T11:25:19.578Z,101409.00
2022-07-28T11:27:51.878Z,101411.94
2022-07-28T11:30:28.907Z,101412.03
2022-07-28T11:32:56.943Z,101412.66
2022-07-28T11:35:26.474Z,101411.69
2022-07-28T11:38:04.940Z,101411.03
2022-07-28T11:40:33.729Z,101403.94
2022-07-28T11:43:36.876Z,101403.31
2022-07-28T11:46:07.724Z,101408.94
2022-07-28T11:48:41.591Z,101408.91
2022-07-28T11:51:13.012Z,101409.97
2022-07-28T11:53:46.850Z,101414.22
2022-07-28T11:56:38.098Z,101396.75
2022-07-28T11:59:11.158Z,101403.78
2022-07-28T12:01:38.848Z,101393.47
2022-07-28T12:04:14.399Z,101399.78
2022-07-28T12:06:43.107Z,101396.00
2022-07-28T12:09:13.132Z,101394.06
2022-07-28T12:11:41.832Z,101386.91
2022-07-28T12:14:16.994Z,101396.59
2022-07-28T12:16:49.764Z,101388.59
2022-07-28T12:19:19.272Z,101389.22
2022-07-28T12:21:55.558Z,101392.59
2022-07-28T12:24:45.562Z,101393.88
2022-07-28T12:27:15.211Z,101392.09
2022-07-28T12:29:42.979Z,101389.91
2022-07-28T12:32:10.597Z,101377.56
2022-07-28T12:34:40.503Z,101385.22
2022-07-28T12:37:12.265Z,101378.75
2022-07-28T12:39:44.265Z,101386.06
2022-07-28T12:42:13.039Z,101379.50
2022-07-28T12:44:43.746Z,101383.97
2022-07-28T12:47:13.957Z,101374.31
2022-07-28T12:49:41.848Z,101388.38
2022-07-28T12:52:23.788Z,101378.56
2022-07-28T12:54:55.625Z,101385.22
2022-07-28T12:57:49.312Z,101378.50
2022-07-28T13:00:24.417Z,101388.72
2022-07-28T13:02:56.041Z,101379.06
2022-07-28T13:05:58.412Z,101379.19
2022-07-28T13:08:29.287Z,101374.09
2022-07-28T13:10:58.857Z,101378.53
2022-07-28T13:13:27.325Z,101379.50
2022-07-28T13:16:18.307Z,101380.50
2022-07-28T13:19:13.471Z,101387.06
2022-07-28T13:21:57.716Z,101382.00
2022-07-28T13:24:28.609Z,101377.47
2022-07-28T13:26:56.841Z,101378.75
2022-07-28T13:29:24.366Z,101387.50
2022-07-28T13:31:56.679Z,101380.91
2022-07-28T13:34:23.805Z,101382.00
2022-07-28T13:36:52.409Z,101389.31
2022-07-28T13:39:19.449Z,101387.06
2022-07-28T13:41:58.304Z,101376.94
2022-07-28T13:44:31.677Z,101381.94
2022-07-28T13:47:00.632Z,101375.59
2022-07-28T13:49:31.522Z,101374.53
2022-07-28T13:52:00.175Z,101377.91
2022-07-28T13:54:28.095Z,101371.25
2022-07-28T13:57:15.331Z,101373.47
2022-07-28T13:59:43.883Z,101380.22
2022-07-28T14:02:15.868Z,101373.22
2022-07-28T14:04:45.934Z,101372.75
2022-07-28T14:07:22.080Z,101368.94
2022-07-28T14:09:51.038Z,101374.34
2022-07-28T14:12:18.436Z,101367.03
2022-07-28T14:14:48.021Z,101366.31
2022-07-28T14:20:11.031Z,101360.31
2022-07-28T14:22:38.098Z,101357.78
2022-07-28T14:25:05.731Z,101361.06
2022-07-28T14:27:33.397Z,101362.63
2022-07-28T14:30:03.711Z,101361.16
2022-07-28T14:32:32.261Z,101367.38
2022-07-28T14:34:59.398Z,101361.50
2022-07-28T14:37:26.574Z,101362.25
2022-07-28T14:39:53.644Z,101354.69
2022-07-28T14:42:20.691Z,101361.78
2022-07-28T14:44:47.836Z,101348.53
2022-07-28T14:47:15.614Z,101362.50
2022-07-28T14:49:57.104Z,101351.94
2022-07-28T14:52:27.239Z,101348.78
2022-07-28T14:54:58.154Z,101346.78
2022-07-28T14:57:50.215Z,101351.91
2022-07-28T15:00:17.573Z,101345.56
2022-07-28T15:02:45.671Z,101351.19
2022-07-28T15:05:13.351Z,101347.84
2022-07-28T15:07:42.329Z,101349.91
2022-07-28T15:10:10.665Z,101353.00
2022-07-28T15:12:38.043Z,101345.31
2022-07-28T15:15:05.941Z,101346.25
2022-07-28T15:17:33.933Z,101345.72
2022-07-28T15:20:01.393Z,101335.59
2022-07-28T15:22:28.564Z,101336.94
2022-07-28T15:24:55.534Z,101340.84
2022-07-28T15:27:23.692Z,101339.22
2022-07-28T15:29:52.226Z,101341.50
2022-07-28T15:32:27.142Z,101338.88
2022-07-28T15:34:55.686Z,101333.09
2022-07-28T15:37:23.146Z,101340.50
2022-07-28T15:39:50.308Z,101339.75
2022-07-28T15:42:17.585Z,101342.47
2022-07-28T15:44:44.597Z,101337.56
2022-07-28T15:47:11.613Z,101340.88
2022-07-28T15:49:38.696Z,101334.75
2022-07-28T15:52:06.092Z,101339.28
2022-07-28T15:54:33.178Z,101337.31
2022-07-28T15:57:00.184Z,101340.56
2022-07-28T15:59:49.286Z,101339.28
2022-07-28T16:02:17.495Z,101338.25
2022-07-28T16:04:54.523Z,101334.97
2022-07-28T16:07:23.688Z,101345.91
2022-07-28T16:09:54.896Z,101344.50
2022-07-28T16:12:25.439Z,101341.28
2022-07-28T16:14:56.694Z,101341.97
2022-07-28T16:17:25.412Z,101341.78
2022-07-28T16:19:53.849Z,101335.06
2022-07-28T16:22:21.974Z,101338.16
2022-07-28T16:24:50.827Z,101341.22
2022-07-28T16:27:18.959Z,101342.47
2022-07-28T16:29:46.043Z,101336.97
2022-07-28T16:32:13.248Z,101335.59
2022-07-28T16:34:40.991Z,101339.72
2022-07-28T16:37:08.457Z,101342.00
2022-07-28T16:39:36.094Z,101344.06
2022-07-28T16:42:03.396Z,101349.09
2022-07-28T16:44:31.238Z,101347.31
2022-07-28T16:46:58.931Z,101342.78
2022-07-28T16:49:26.083Z,101347.94
2022-07-28T16:51:54.763Z,101347.91
2022-07-28T16:54:22.883Z,101346.28
2022-07-28T16:56:50.847Z,101347.38
2022-07-28T16:59:17.998Z,101348.91
2022-07-28T17:01:46.389Z,101349.63
2022-07-28T17:04:16.400Z,101352.94
2022-07-28T17:06:43.755Z,101351.06
2022-07-28T17:09:11.595Z,101354.03
2022-07-28T17:11:38.928Z,101357.06
2022-07-28T17:14:05.917Z,101352.69
2022-07-28T17:16:33.235Z,101354.63
2022-07-28T17:19:00.717Z,101357.66
2022-07-28T17:21:27.902Z,101362.88
2022-07-28T17:23:55.284Z,101353.25
2022-07-28T17:29:12.787Z,101355.50
2022-07-28T17:31:39.824Z,101360.47
2022-07-28T17:34:08.984Z,101364.81
2022-07-28T17:36:36.383Z,101360.75
2022-07-28T17:39:07.090Z,101365.66
2022-07-28T17:41:34.887Z,101368.66
2022-07-28T17:44:02.488Z,101370.53
2022-07-28T17:46:30.038Z,101378.72
2022-07-28T17:48:58.721Z,101385.50
2022-07-28T17:51:27.569Z,101390.91
2022-07-28T17:53:55.625Z,101386.00
2022-07-28T17:56:22.912Z,101387.91
2022-07-28T17:58:50.086Z,101394.13
2022-07-28T18:01:17.185Z,101393.06
2022-07-28T18:03:57.691Z,101395.44
2022-07-28T18:06:36.041Z,101394.69
2022-07-28T18:09:12.097Z,101401.22
2022-07-28T18:11:57.165Z,101395.78
2022-07-28T18:14:27.771Z,101403.66
2022-07-28T18:16:55.513Z,101407.72
2022-07-28T18:19:22.798Z,101405.50
2022-07-28T18:21:49.967Z,101412.34
2022-07-28T18:24:18.044Z,101407.16
2022-07-28T18:26:45.515Z,101410.41
2022-07-28T18:29:12.534Z,101403.88
2022-07-28T18:31:45.830Z,101406.59
2022-07-28T18:34:14.112Z,101414.38
2022-07-28T18:36:41.400Z,101415.19
2022-07-28T18:39:08.687Z,101417.06
2022-07-28T18:41:46.257Z,101416.72
2022-07-28T18:44:19.478Z,101415.31
2022-07-28T18:46:47.661Z,101418.16
2022-07-28T18:49:15.766Z,101419.06
2022-07-28T18:51:45.169Z,101424.94
2022-07-28T18:54:17.359Z,101422.66
2022-07-28T18:56:45.872Z,101421.09
2022-07-28T18:59:12.938Z,101428.13
2022-07-28T19:01:39.994Z,101436.78
2022-07-28T19:04:07.122Z,101429.72
2022-07-28T19:06:35.295Z,101432.91
2022-07-28T19:09:02.759Z,101439.53
2022-07-28T19:11:32.181Z,101446.22
2022-07-28T19:14:00.415Z,101445.84
2022-07-28T19:16:27.503Z,101441.97
2022-07-28T19:18:54.741Z,101446.97
2022-07-28T19:21:21.766Z,101444.53
2022-07-28T19:23:49.276Z,101452.00
2022-07-28T19:26:16.755Z,101456.44
2022-07-28T19:28:44.503Z,101458.44
2022-07-28T19:31:11.746Z,101456.41
2022-07-28T19:33:42.978Z,101455.03
2022-07-28T19:36:13.891Z,101465.75
2022-07-28T19:38:41.371Z,101467.31
2022-07-28T19:41:09.935Z,101461.81
2022-07-28T19:43:37.522Z,101472.38
2022-07-28T19:46:05.254Z,101464.44
2022-07-28T19:48:32.421Z,101467.56
2022-07-28T19:51:00.033Z,101470.13
2022-07-28T19:53:31.907Z,101471.75
2022-07-28T19:55:59.692Z,101466.47
2022-07-28T19:58:26.764Z,101477.78
2022-07-28T20:00:56.698Z,101467.72
2022-07-28T20:04:00.878Z,101477.06
2022-07-28T20:06:12.699Z,101474.00
2022-07-28T20:08:40.152Z,101478.66
2022-07-28T20:11:08.199Z,101487.09
2022-07-28T20:13:35.684Z,101489.34
2022-07-28T20:16:02.695Z,101497.00
2022-07-28T20:18:29.716Z,101499.06
2022-07-28T20:21:06.256Z,101496.28
2022-07-28T20:23:33.510Z,101500.47
2022-07-28T20:26:00.690Z,101501.00
2022-07-28T20:28:27.840Z,101497.88
2022-07-28T20:30:55.104Z,101509.81
2022-07-28T20:33:22.239Z,101507.97
2022-07-28T20:35:50.099Z,101506.00
2022-07-28T20:38:23.341Z,101510.19
2022-07-28T20:40:51.713Z,101508.06
2022-07-28T20:43:18.850Z,101507.06
2022-07-28T20:45:46.596Z,101511.34
2022-07-28T20:48:14.607Z,101513.75
2022-07-28T20:50:42.821Z,101516.88
2022-07-28T20:53:10.585Z,101515.97
2022-07-28T20:55:38.081Z,101517.59
2022-07-28T20:58:06.115Z,101525.94
2022-07-28T21:00:33.648Z,101528.03
2022-07-28T21:03:00.894Z,101534.84
2022-07-28T21:05:34.924Z,101536.22
2022-07-28T21:08:06.464Z,101534.91
2022-07-28T21:10:37.113Z,101533.19
2022-07-28T21:13:04.442Z,101542.13
2022-07-28T21:15:31.836Z,101541.53
2022-07-28T21:17:59.814Z,101539.78
2022-07-28T21:20:27.113Z,101548.91
2022-07-28T21:22:54.581Z,101540.00
2022-07-28T21:25:22.813Z,101546.59
2022-07-28T21:28:08.791Z,101548.56
2022-07-28T21:30:37.088Z,101554.44
2022-07-28T21:33:04.299Z,101556.84
2022-07-28T21:35:31.515Z,101557.72
2022-07-28T21:37:58.569Z,101561.19
2022-07-28T21:40:26.382Z,101561.19
2022-07-28T21:42:53.609Z,101559.69
2022-07-28T21:45:21.275Z,101564.09
2022-07-28T21:47:48.899Z,101566.59
2022-07-28T21:50:16.266Z,101573.50
2022-07-28T21:52:43.574Z,101577.03
2022-07-28T21:55:10.810Z,101575.13
2022-07-28T21:57:38.219Z,101583.22
2022-07-28T22:00:09.095Z,101581.09
2022-07-28T22:02:36.278Z,101584.84
2022-07-28T22:05:05.041Z,101593.16
2022-07-28T22:07:32.287Z,101580.91
2022-07-28T22:09:59.342Z,101591.69
2022-07-28T22:12:26.323Z,101598.78
2022-07-28T22:14:53.373Z,101601.63
2022-07-28T22:17:20.560Z,101596.09
2022-07-28T22:19:47.673Z,101601.25
2022-07-28T22:22:18.266Z,101600.56
2022-07-28T22:24:46.136Z,101613.88
2022-07-28T22:27:13.396Z,101609.03
2022-07-28T22:29:40.413Z,101618.81
2022-07-28T22:32:26.657Z,101614.13
2022-07-28T22:34:58.157Z,101616.84
2022-07-28T22:37:25.433Z,101610.16
2022-07-28T22:39:55.704Z,101614.53
2022-07-28T22:42:22.875Z,101607.16
2022-07-28T22:44:50.083Z,101615.22
2022-07-28T22:47:17.171Z,101615.38
2022-07-28T22:49:44.275Z,101624.34
2022-07-28T22:52:11.402Z,101628.13
2022-07-28T22:54:39.976Z,101627.34
2022-07-28T22:57:58.058Z,101641.09
2022-07-28T23:00:26.877Z,101630.50
2022-07-28T23:02:55.116Z,101632.31
2022-07-28T23:05:22.591Z,101637.13
2022-07-28T23:07:51.126Z,101634.44
2022-07-28T23:10:20.731Z,101628.22
2022-07-28T23:12:47.794Z,101638.66
2022-07-28T23:15:14.794Z,101640.34
2022-07-28T23:17:41.949Z,101639.00
2022-07-28T23:20:10.105Z,101630.06
2022-07-28T23:22:38.022Z,101635.81
2022-07-28T23:25:05.774Z,101631.97
2022-07-28T23:27:32.856Z,101633.38
2022-07-28T23:29:59.996Z,101631.50
2022-07-28T23:32:27.052Z,101631.66
2022-07-28T23:34:54.241Z,101641.69
2022-07-28T23:37:21.342Z,101637.06
2022-07-28T23:39:48.464Z,101638.56
2022-07-28T23:42:16.402Z,101642.75
2022-07-28T23:44:43.501Z,101633.31
2022-07-28T23:47:10.769Z,101637.66
2022-07-28T23:49:37.912Z,101633.22
2022-07-28T23:52:05.418Z,101636.44
2022-07-28T23:54:32.631Z,101630.56
2022-07-28T23:56:59.730Z,101638.88
2022-07-28T23:59:26.775Z,101634.31
